createdAt,value
2023-07-18T00:00:45.020Z,13.17
2023-07-18T00:03:13.885Z,13.10
2023-07-18T00:05:41.862Z,13.02
2023-07-18T00:08:10.180Z,13.09
2023-07-18T00:10:37.821Z,13.11
2023-07-18T00:13:06.397Z,12.97
2023-07-18T00:15:33.861Z,12.92
2023-07-18T00:18:03.273Z,12.90
2023-07-18T00:20:30.368Z,12.83
2023-07-18T00:22:57.421Z,12.76
2023-07-18T00:25:24.525Z,12.86
2023-07-18T00:27:52.318Z,12.83
2023-07-18T00:30:19.240Z,12.81
2023-07-18T00:32:46.726Z,12.76
2023-07-18T00:35:16.140Z,12.71
2023-07-18T00:37:44.279Z,12.83
2023-07-18T00:40:15.873Z,12.73
2023-07-18T00:42:51.453Z,12.69
2023-07-18T00:45:18.415Z,12.58
2023-07-18T00:47:48.533Z,12.45
2023-07-18T00:50:17.206Z,12.43
2023-07-18T00:52:47.862Z,12.48
2023-07-18T00:55:15.371Z,12.38
2023-07-18T00:57:43.859Z,12.33
2023-07-18T01:00:14.601Z,12.33
2023-07-18T01:02:45.705Z,12.34
2023-07-18T01:05:19.039Z,12.19
2023-07-18T01:07:47.638Z,12.13
2023-07-18T01:10:18.373Z,12.24
2023-07-18T01:12:46.077Z,12.44
2023-07-18T01:15:13.984Z,12.38
2023-07-18T01:17:43.463Z,12.23
2023-07-18T01:20:13.222Z,12.24
2023-07-18T01:22:40.342Z,12.24
2023-07-18T01:25:07.731Z,12.16
2023-07-18T01:27:38.038Z,12.10
2023-07-18T01:30:06.785Z,12.01
2023-07-18T01:32:35.334Z,11.95
2023-07-18T01:35:05.131Z,11.87
2023-07-18T01:37:33.463Z,11.80
2023-07-18T01:40:01.337Z,11.77
2023-07-18T01:42:28.651Z,11.75
2023-07-18T01:44:55.700Z,11.96
2023-07-18T01:47:22.806Z,11.98
2023-07-18T01:49:49.626Z,11.82
2023-07-18T01:52:16.328Z,11.71
2023-07-18T01:54:43.080Z,11.64
2023-07-18T01:57:10.375Z,11.61
2023-07-18T01:59:37.061Z,11.62
2023-07-18T02:02:07.413Z,11.58
2023-07-18T02:04:34.945Z,11.56
2023-07-18T02:07:01.627Z,11.60
2023-07-18T02:09:29.251Z,11.63
2023-07-18T02:11:55.944Z,11.58
2023-07-18T02:14:22.546Z,11.55
2023-07-18T02:16:49.435Z,11.48
2023-07-18T02:19:16.415Z,11.45
2023-07-18T02:21:43.228Z,11.47
2023-07-18T02:24:10.156Z,11.41
2023-07-18T02:26:37.141Z,11.39
2023-07-18T02:29:04.071Z,11.40
2023-07-18T02:31:31.640Z,11.36
2023-07-18T02:33:58.888Z,11.37
2023-07-18T02:36:26.118Z,11.39
2023-07-18T02:38:53.300Z,11.29
2023-07-18T02:41:21.021Z,11.28
2023-07-18T02:43:48.355Z,11.21
2023-07-18T02:46:15.345Z,11.16
2023-07-18T02:48:42.990Z,11.15
2023-07-18T02:51:09.587Z,11.12
2023-07-18T02:53:37.051Z,11.17
2023-07-18T02:56:03.864Z,11.22
2023-07-18T02:58:30.381Z,11.21
2023-07-18T03:00:57.347Z,11.18
2023-07-18T03:03:24.497Z,11.16
2023-07-18T03:05:54.489Z,11.13
2023-07-18T03:08:21.970Z,11.09
2023-07-18T03:10:48.588Z,11.08
2023-07-18T03:13:15.303Z,11.08
2023-07-18T03:15:42.510Z,11.05
2023-07-18T03:18:09.240Z,11.02
2023-07-18T03:20:36.288Z,11.01
2023-07-18T03:23:03.142Z,11.07
2023-07-18T03:25:29.782Z,11.17
2023-07-18T03:27:56.799Z,11.29
2023-07-18T03:30:24.768Z,11.34
2023-07-18T03:32:52.552Z,11.17
2023-07-18T03:35:19.273Z,11.05
2023-07-18T03:37:46.178Z,10.98
2023-07-18T03:40:16.867Z,10.96
2023-07-18T03:42:44.606Z,11.06
2023-07-18T03:45:14.158Z,11.05
2023-07-18T03:47:42.209Z,11.10
2023-07-18T03:50:11.911Z,11.00
2023-07-18T03:52:39.583Z,10.99
2023-07-18T03:55:07.901Z,10.99
2023-07-18T03:57:35.825Z,11.10
2023-07-18T04:00:08.904Z,11.20
2023-07-18T04:02:37.057Z,11.40
2023-07-18T04:05:03.790Z,11.23
2023-07-18T04:07:33.027Z,11.17
2023-07-18T04:09:59.711Z,11.33
2023-07-18T04:12:26.301Z,11.22
2023-07-18T04:14:52.888Z,11.17
2023-07-18T04:17:19.433Z,11.12
2023-07-18T04:19:46.458Z,11.14
2023-07-18T04:22:13.050Z,11.12
2023-07-18T04:24:40.513Z,11.11
2023-07-18T04:27:07.339Z,11.15
2023-07-18T04:29:34.322Z,11.17
2023-07-18T04:32:01.247Z,11.22
2023-07-18T04:34:27.987Z,11.23
2023-07-18T04:36:54.605Z,11.24
2023-07-18T04:39:21.911Z,11.22
2023-07-18T04:41:55.022Z,11.26
2023-07-18T04:44:25.811Z,11.25
2023-07-18T04:46:55.725Z,11.30
2023-07-18T04:49:26.242Z,11.30
2023-07-18T04:51:53.979Z,11.34
2023-07-18T04:54:21.324Z,11.34
2023-07-18T04:56:49.011Z,11.41
2023-07-18T04:59:15.902Z,11.44
2023-07-18T05:01:42.592Z,11.47
2023-07-18T05:04:09.806Z,11.56
2023-07-18T05:06:36.970Z,11.63
2023-07-18T05:09:04.615Z,11.60
2023-07-18T05:11:33.835Z,11.68
2023-07-18T05:14:01.560Z,11.64
2023-07-18T05:16:28.775Z,11.73
2023-07-18T05:18:55.356Z,11.79
2023-07-18T05:21:22.810Z,11.83
2023-07-18T05:23:49.397Z,11.88
2023-07-18T05:26:15.803Z,11.91
2023-07-18T05:28:42.336Z,12.08
2023-07-18T05:31:09.522Z,12.12
2023-07-18T05:33:36.305Z,12.24
2023-07-18T05:36:03.030Z,12.42
2023-07-18T05:38:29.669Z,12.38
2023-07-18T05:40:57.275Z,12.57
2023-07-18T05:43:24.166Z,12.73
2023-07-18T05:45:50.786Z,12.90
2023-07-18T05:48:17.854Z,13.05
2023-07-18T05:50:44.741Z,13.05
2023-07-18T05:53:11.812Z,13.31
2023-07-18T05:55:39.486Z,13.41
2023-07-18T05:58:06.221Z,13.65
2023-07-18T06:00:33.017Z,14.32
2023-07-18T06:02:59.590Z,14.69
2023-07-18T06:05:26.561Z,14.96
2023-07-18T06:07:53.691Z,15.24
2023-07-18T06:10:20.306Z,15.17
2023-07-18T06:12:46.965Z,15.40
2023-07-18T06:15:16.136Z,15.38
2023-07-18T06:17:42.752Z,15.60
2023-07-18T06:20:14.732Z,15.79
2023-07-18T06:22:44.172Z,15.79
2023-07-18T06:25:11.461Z,15.86
2023-07-18T06:27:38.673Z,15.90
2023-07-18T06:30:05.930Z,16.21
2023-07-18T06:32:32.608Z,16.59
2023-07-18T06:35:06.082Z,16.76
2023-07-18T06:37:43.753Z,16.95
2023-07-18T06:40:12.697Z,17.26
2023-07-18T06:42:40.097Z,17.43
2023-07-18T06:45:07.915Z,17.61
2023-07-18T06:47:34.430Z,17.86
2023-07-18T06:50:02.278Z,18.04
2023-07-18T06:52:29.300Z,18.22
2023-07-18T06:54:56.132Z,18.51
2023-07-18T06:57:23.029Z,18.71
2023-07-18T06:59:49.737Z,18.57
2023-07-18T07:02:17.021Z,18.68
2023-07-18T07:04:43.763Z,18.98
2023-07-18T07:07:10.385Z,19.14
2023-07-18T07:09:37.350Z,19.01
2023-07-18T07:12:05.209Z,18.98
2023-07-18T07:14:31.940Z,18.90
2023-07-18T07:16:59.197Z,19.05
2023-07-18T07:19:25.848Z,19.29
2023-07-18T07:21:52.375Z,19.23
2023-07-18T07:24:19.018Z,19.20
2023-07-18T07:26:45.976Z,19.37
2023-07-18T07:29:15.579Z,19.53
2023-07-18T07:31:43.476Z,19.84
2023-07-18T07:34:11.467Z,20.22
2023-07-18T07:36:41.041Z,19.85
2023-07-18T07:39:08.619Z,20.16
2023-07-18T07:41:35.931Z,20.60
2023-07-18T07:44:02.649Z,20.47
2023-07-18T07:46:29.162Z,20.61
2023-07-18T07:48:55.901Z,20.94
2023-07-18T07:51:23.334Z,20.80
2023-07-18T07:53:50.008Z,20.55
2023-07-18T07:56:17.230Z,20.62
2023-07-18T07:58:49.316Z,20.76
2023-07-18T08:01:24.212Z,20.64
2023-07-18T08:03:51.025Z,20.94
2023-07-18T08:06:18.487Z,21.39
2023-07-18T08:08:45.746Z,21.46
2023-07-18T08:11:12.503Z,21.66
2023-07-18T08:13:39.173Z,21.28
2023-07-18T08:16:06.705Z,21.30
2023-07-18T08:18:35.384Z,21.42
2023-07-18T08:21:02.927Z,21.45
2023-07-18T08:23:30.233Z,21.80
2023-07-18T08:25:56.877Z,22.09
2023-07-18T08:28:23.967Z,22.06
2023-07-18T08:30:50.906Z,22.36
2023-07-18T08:33:20.301Z,22.05
2023-07-18T08:35:47.232Z,21.96
2023-07-18T08:38:14.831Z,22.16
2023-07-18T08:40:45.028Z,22.15
2023-07-18T08:43:15.827Z,21.97
2023-07-18T08:45:43.925Z,21.95
2023-07-18T08:48:10.566Z,22.02
2023-07-18T08:50:40.634Z,22.35
2023-07-18T08:53:07.670Z,22.63
2023-07-18T08:55:36.051Z,22.59
2023-07-18T08:58:03.660Z,22.80
2023-07-18T09:00:30.504Z,22.45
2023-07-18T09:02:57.486Z,22.73
2023-07-18T09:05:33.106Z,23.12
2023-07-18T09:08:01.269Z,23.54
2023-07-18T09:10:28.212Z,23.43
2023-07-18T09:12:59.855Z,23.31
2023-07-18T09:15:26.524Z,23.15
2023-07-18T09:17:58.188Z,23.07
2023-07-18T09:20:26.848Z,22.89
2023-07-18T09:23:01.463Z,22.79
2023-07-18T09:25:28.939Z,23.11
2023-07-18T09:27:56.837Z,22.89
2023-07-18T09:30:28.996Z,23.03
2023-07-18T09:32:56.641Z,22.96
2023-07-18T09:35:27.546Z,23.16
2023-07-18T09:37:56.398Z,23.56
2023-07-18T09:40:23.506Z,23.64
2023-07-18T09:42:50.998Z,22.87
2023-07-18T09:45:18.134Z,23.02
2023-07-18T09:47:45.583Z,23.33
2023-07-18T09:50:14.443Z,23.12
2023-07-18T09:52:43.059Z,23.06
2023-07-18T09:55:11.211Z,23.76
2023-07-18T09:57:41.374Z,24.19
2023-07-18T10:00:16.513Z,24.53
2023-07-18T10:02:44.360Z,24.31
2023-07-18T10:05:11.398Z,23.76
2023-07-18T10:07:39.822Z,24.01
2023-07-18T10:10:09.866Z,24.05
2023-07-18T10:12:38.786Z,23.91
2023-07-18T10:15:06.095Z,23.96
2023-07-18T10:17:40.171Z,24.06
2023-07-18T10:20:18.834Z,23.92
2023-07-18T10:22:58.596Z,23.92
2023-07-18T10:25:30.748Z,24.27
2023-07-18T10:27:59.307Z,24.75
2023-07-18T10:30:38.198Z,25.34
2023-07-18T10:33:09.552Z,25.05
2023-07-18T10:35:42.503Z,24.63
2023-07-18T10:38:10.303Z,24.09
2023-07-18T10:40:43.945Z,24.00
2023-07-18T10:43:12.945Z,23.49
2023-07-18T10:45:41.512Z,23.45
2023-07-18T10:48:15.696Z,23.53
2023-07-18T10:50:44.581Z,23.71
2023-07-18T10:53:18.683Z,24.84
2023-07-18T10:55:46.942Z,27.48
2023-07-18T10:58:21.204Z,26.98
2023-07-18T11:00:50.425Z,26.78
2023-07-18T11:03:22.229Z,26.88
2023-07-18T11:05:50.451Z,26.63
2023-07-18T11:08:27.613Z,25.55
2023-07-18T11:11:00.099Z,25.97
2023-07-18T11:13:35.704Z,26.39
2023-07-18T11:16:16.320Z,27.88
2023-07-18T11:18:45.577Z,28.73
2023-07-18T11:21:13.976Z,28.76
2023-07-18T11:23:42.679Z,28.42
2023-07-18T11:26:15.349Z,27.50
2023-07-18T11:28:42.973Z,25.80
2023-07-18T11:33:58.061Z,25.25
2023-07-18T11:36:30.163Z,27.11
2023-07-18T11:38:59.284Z,28.14
2023-07-18T11:41:36.430Z,27.99
2023-07-18T11:44:04.926Z,27.13
2023-07-18T11:46:46.741Z,27.61
2023-07-18T11:49:13.890Z,27.84
2023-07-18T11:51:41.893Z,28.95
2023-07-18T11:54:08.867Z,29.20
2023-07-18T11:56:36.482Z,29.40
2023-07-18T11:59:04.404Z,29.33
2023-07-18T12:01:38.076Z,29.58
2023-07-18T12:04:12.566Z,29.15
2023-07-18T12:06:40.114Z,29.67
2023-07-18T12:09:06.517Z,29.13
2023-07-18T12:11:33.473Z,28.67
2023-07-18T12:14:01.172Z,28.82
2023-07-18T12:16:27.871Z,29.21
2023-07-18T12:18:54.603Z,28.93
2023-07-18T12:21:21.546Z,28.67
2023-07-18T12:23:48.899Z,28.65
2023-07-18T12:26:15.752Z,27.94
2023-07-18T12:28:42.183Z,27.55
2023-07-18T12:31:09.092Z,27.18
2023-07-18T12:33:36.034Z,26.78
2023-07-18T12:36:02.914Z,26.51
2023-07-18T12:38:30.122Z,27.51
2023-07-18T12:40:58.005Z,28.13
2023-07-18T12:43:25.422Z,27.94
2023-07-18T12:45:52.191Z,27.07
2023-07-18T12:48:19.833Z,26.94
2023-07-18T12:50:46.468Z,26.34
2023-07-18T12:53:13.265Z,26.64
2023-07-18T12:55:39.860Z,26.70
2023-07-18T12:58:06.361Z,26.34
2023-07-18T13:00:33.312Z,27.03
2023-07-18T13:03:00.266Z,27.49
2023-07-18T13:05:27.104Z,27.42
2023-07-18T13:07:54.577Z,26.82
2023-07-18T13:10:21.549Z,27.32
2023-07-18T13:12:48.723Z,28.19
2023-07-18T13:15:15.612Z,28.01
2023-07-18T13:17:42.540Z,27.19
2023-07-18T13:20:09.512Z,27.59
2023-07-18T13:22:36.536Z,28.55
2023-07-18T13:25:05.090Z,28.56
2023-07-18T13:27:31.840Z,29.00
2023-07-18T13:29:58.446Z,27.82
2023-07-18T13:32:25.082Z,28.00
2023-07-18T13:34:51.605Z,28.34
2023-07-18T13:37:18.174Z,27.95
2023-07-18T13:39:45.054Z,28.49
2023-07-18T13:42:11.570Z,28.84
2023-07-18T13:44:39.058Z,28.57
2023-07-18T13:47:06.068Z,28.67
2023-07-18T13:52:02.340Z,27.12
2023-07-18T13:54:29.037Z,27.45
2023-07-18T13:56:55.853Z,28.18
2023-07-18T13:59:23.464Z,27.98
2023-07-18T14:01:50.207Z,27.12
2023-07-18T14:04:17.450Z,27.92
2023-07-18T14:06:44.998Z,28.89
2023-07-18T14:09:11.713Z,29.08
2023-07-18T14:11:38.607Z,29.14
2023-07-18T14:14:05.161Z,29.09
2023-07-18T14:16:32.439Z,28.82
2023-07-18T14:18:59.771Z,29.02
2023-07-18T14:21:26.865Z,29.06
2023-07-18T14:23:53.953Z,29.19
2023-07-18T14:26:21.263Z,29.36
2023-07-18T14:28:48.243Z,28.79
2023-07-18T14:31:15.729Z,29.31
2023-07-18T14:33:55.335Z,29.54
2023-07-18T14:36:30.753Z,29.03
2023-07-18T14:38:58.507Z,29.50
2023-07-18T14:41:25.849Z,29.99
2023-07-18T14:43:54.580Z,29.69
2023-07-18T14:46:40.963Z,29.83
2023-07-18T14:49:28.362Z,29.89
2023-07-18T14:51:57.396Z,29.80
2023-07-18T14:54:25.869Z,29.85
2023-07-18T14:56:52.840Z,29.39
2023-07-18T14:59:22.687Z,29.70
2023-07-18T15:01:49.612Z,29.97
2023-07-18T15:04:16.691Z,29.74
2023-07-18T15:06:43.644Z,29.38
2023-07-18T15:09:10.883Z,29.07
2023-07-18T15:11:39.082Z,29.23
2023-07-18T15:14:07.607Z,29.58
2023-07-18T15:16:36.293Z,29.64
2023-07-18T15:19:07.598Z,29.88
2023-07-18T15:21:35.246Z,29.84
2023-07-18T15:24:02.359Z,30.05
2023-07-18T15:26:29.112Z,29.83
2023-07-18T15:28:55.867Z,29.73
2023-07-18T15:31:23.141Z,29.74
2023-07-18T15:33:50.661Z,28.95
2023-07-18T15:36:18.966Z,28.90
2023-07-18T15:38:46.547Z,28.84
2023-07-18T15:41:17.095Z,29.16
2023-07-18T15:43:44.427Z,28.29
2023-07-18T15:46:11.490Z,28.06
2023-07-18T15:48:45.056Z,27.61
2023-07-18T15:51:32.198Z,28.09
2023-07-18T15:54:18.647Z,28.00
2023-07-18T15:57:07.223Z,28.10
2023-07-18T15:59:53.593Z,27.83
2023-07-18T16:02:22.692Z,27.73
2023-07-18T16:04:50.513Z,27.85
2023-07-18T16:07:17.192Z,27.78
2023-07-18T16:09:54.338Z,28.04
2023-07-18T16:12:21.053Z,27.88
2023-07-18T16:14:49.593Z,27.65
2023-07-18T16:17:16.687Z,27.50
2023-07-18T16:19:45.619Z,27.39
2023-07-18T16:22:13.688Z,27.35
2023-07-18T16:24:42.503Z,27.61
2023-07-18T16:27:09.395Z,27.78
2023-07-18T16:29:36.651Z,27.60
2023-07-18T16:32:03.973Z,27.53
2023-07-18T16:34:31.245Z,27.59
2023-07-18T16:36:57.941Z,27.80
2023-07-18T16:39:25.050Z,27.48
2023-07-18T16:41:51.805Z,27.35
2023-07-18T16:44:20.874Z,27.61
2023-07-18T16:46:49.351Z,27.85
2023-07-18T16:49:16.092Z,27.80
2023-07-18T16:51:42.890Z,27.17
2023-07-18T16:54:09.786Z,26.81
2023-07-18T16:56:37.446Z,26.86
2023-07-18T16:59:04.039Z,27.28
2023-07-18T17:01:32.501Z,26.98
2023-07-18T17:04:00.755Z,26.69
2023-07-18T17:06:27.344Z,26.58
2023-07-18T17:08:54.393Z,26.35
2023-07-18T17:11:21.412Z,26.38
2023-07-18T17:13:49.172Z,26.81
2023-07-18T17:16:17.878Z,26.81
2023-07-18T17:18:45.147Z,26.45
2023-07-18T17:21:12.918Z,26.21
2023-07-18T17:23:39.639Z,26.14
2023-07-18T17:26:09.450Z,25.92
2023-07-18T17:28:37.436Z,25.96
2023-07-18T17:31:05.238Z,26.02
2023-07-18T17:33:32.505Z,25.93
2023-07-18T17:35:59.121Z,25.88
2023-07-18T17:38:25.974Z,25.79
2023-07-18T17:40:53.817Z,25.87
2023-07-18T17:43:20.491Z,26.01
2023-07-18T17:45:47.319Z,25.93
2023-07-18T17:48:14.425Z,25.88
2023-07-18T17:50:41.118Z,25.73
2023-07-18T17:53:07.705Z,25.52
2023-07-18T17:55:34.527Z,25.40
2023-07-18T17:58:07.016Z,25.34
2023-07-18T18:00:35.394Z,25.37
2023-07-18T18:03:03.605Z,25.33
2023-07-18T18:05:48.137Z,25.20
2023-07-18T18:08:16.946Z,25.39
2023-07-18T18:10:46.341Z,25.75
2023-07-18T18:13:13.927Z,25.67
2023-07-18T18:15:48.663Z,25.68
2023-07-18T18:18:19.163Z,25.70
2023-07-18T18:20:46.386Z,25.66
2023-07-18T18:23:23.484Z,25.80
2023-07-18T18:25:55.546Z,25.75
2023-07-18T18:28:24.673Z,25.62
2023-07-18T18:30:52.621Z,25.47
2023-07-18T18:33:20.729Z,25.59
2023-07-18T18:35:47.404Z,25.49
2023-07-18T18:38:14.380Z,25.47
2023-07-18T18:40:41.080Z,25.40
2023-07-18T18:43:08.543Z,25.31
2023-07-18T18:45:35.574Z,25.43
2023-07-18T18:48:02.286Z,25.34
2023-07-18T18:50:29.584Z,25.10
2023-07-18T18:52:56.511Z,24.98
2023-07-18T18:55:28.130Z,24.92
2023-07-18T18:57:56.289Z,24.65
2023-07-18T19:00:23.312Z,24.43
2023-07-18T19:02:50.596Z,24.20
2023-07-18T19:05:18.075Z,24.18
2023-07-18T19:07:45.070Z,23.76
2023-07-18T19:10:11.746Z,23.54
2023-07-18T19:12:39.284Z,23.41
2023-07-18T19:15:06.410Z,23.31
2023-07-18T19:17:34.047Z,22.94
2023-07-18T19:20:01.375Z,22.76
2023-07-18T19:22:28.642Z,22.69
2023-07-18T19:24:55.317Z,22.30
2023-07-18T19:27:23.394Z,22.20
2023-07-18T19:29:50.768Z,22.05
2023-07-18T19:32:17.600Z,21.84
2023-07-18T19:34:44.595Z,21.64
2023-07-18T19:37:11.825Z,21.52
2023-07-18T19:39:39.321Z,21.42
2023-07-18T19:42:06.771Z,21.44
2023-07-18T19:44:35.144Z,21.23
2023-07-18T19:47:02.007Z,21.08
2023-07-18T19:49:29.345Z,20.97
2023-07-18T19:51:57.650Z,21.07
2023-07-18T19:54:28.258Z,21.05
2023-07-18T19:56:55.392Z,20.76
2023-07-18T19:59:22.092Z,20.72
2023-07-18T20:01:48.927Z,20.81
2023-07-18T20:04:15.989Z,20.54
2023-07-18T20:06:42.725Z,20.40
2023-07-18T20:09:09.422Z,20.45
2023-07-18T20:11:36.055Z,20.37
2023-07-18T20:14:03.055Z,20.30
2023-07-18T20:16:31.098Z,20.18
2023-07-18T20:19:02.411Z,20.21
2023-07-18T20:21:30.325Z,20.12
2023-07-18T20:23:58.193Z,19.94
2023-07-18T20:26:25.937Z,19.83
2023-07-18T20:28:52.983Z,19.88
2023-07-18T20:31:20.733Z,19.68
2023-07-18T20:33:48.259Z,19.68
2023-07-18T20:36:15.197Z,19.64
2023-07-18T20:38:44.084Z,19.47
2023-07-18T20:41:10.880Z,19.31
2023-07-18T20:43:38.049Z,19.20
2023-07-18T20:46:05.927Z,19.20
2023-07-18T20:48:35.624Z,19.14
2023-07-18T20:51:02.682Z,19.07
2023-07-18T20:53:30.321Z,19.04
2023-07-18T20:55:57.516Z,18.91
2023-07-18T20:58:24.560Z,19.09
2023-07-18T21:00:52.030Z,19.06
2023-07-18T21:03:19.222Z,18.91
2023-07-18T21:05:48.864Z,18.68
2023-07-18T21:08:17.437Z,18.65
2023-07-18T21:10:44.103Z,18.68
2023-07-18T21:13:11.157Z,18.62
2023-07-18T21:15:37.921Z,18.45
2023-07-18T21:18:06.542Z,18.39
2023-07-18T21:20:34.902Z,18.32
2023-07-18T21:23:02.840Z,18.27
2023-07-18T21:25:29.911Z,18.39
2023-07-18T21:27:57.921Z,18.38
2023-07-18T21:30:25.065Z,18.33
2023-07-18T21:32:52.642Z,18.49
2023-07-18T21:35:20.179Z,18.37
2023-07-18T21:37:47.026Z,18.30
2023-07-18T21:40:13.668Z,18.28
2023-07-18T21:42:42.149Z,18.32
2023-07-18T21:45:09.419Z,18.20
2023-07-18T21:47:36.561Z,18.04
2023-07-18T21:50:03.907Z,18.09
2023-07-18T21:52:30.856Z,18.06
2023-07-18T21:54:57.349Z,17.97
2023-07-18T21:57:24.044Z,17.83
2023-07-18T21:59:50.641Z,17.88
2023-07-18T22:02:21.846Z,17.84
2023-07-18T22:04:48.734Z,17.76
2023-07-18T22:07:15.351Z,17.72
2023-07-18T22:09:41.759Z,17.74
2023-07-18T22:12:08.434Z,17.72
2023-07-18T22:14:34.993Z,17.59
2023-07-18T22:17:01.709Z,17.62
2023-07-18T22:19:30.371Z,17.56
2023-07-18T22:21:58.194Z,17.51
2023-07-18T22:24:24.920Z,17.52
2023-07-18T22:26:51.844Z,17.51
2023-07-18T22:29:18.354Z,17.46
2023-07-18T22:31:44.819Z,17.42
2023-07-18T22:34:11.787Z,17.43
2023-07-18T22:36:38.578Z,17.32
2023-07-18T22:39:05.426Z,17.28
2023-07-18T22:41:32.008Z,17.31
2023-07-18T22:43:58.671Z,17.47
2023-07-18T22:46:25.444Z,17.49
2023-07-18T22:48:52.259Z,17.33
2023-07-18T22:51:19.454Z,17.20
2023-07-18T22:53:46.890Z,17.05
2023-07-18T22:56:14.742Z,17.00
2023-07-18T22:58:42.229Z,16.97
2023-07-18T23:01:08.814Z,17.04
2023-07-18T23:03:35.584Z,16.90
2023-07-18T23:06:03.226Z,16.88
2023-07-18T23:08:30.356Z,16.92
2023-07-18T23:10:57.094Z,17.01
2023-07-18T23:13:24.410Z,16.94
2023-07-18T23:15:51.363Z,17.01
2023-07-18T23:18:18.504Z,17.05
2023-07-18T23:20:46.790Z,16.77
2023-07-18T23:23:15.121Z,16.74
2023-07-18T23:25:41.777Z,16.97
2023-07-18T23:28:08.661Z,17.06
2023-07-18T23:30:35.338Z,16.96
2023-07-18T23:33:02.201Z,16.85
2023-07-18T23:35:29.371Z,17.07
2023-07-18T23:37:57.050Z,17.12
2023-07-18T23:40:24.260Z,16.86
2023-07-18T23:42:51.371Z,16.61
2023-07-18T23:45:19.449Z,16.52
2023-07-18T23:47:46.386Z,16.41
2023-07-18T23:50:13.652Z,16.41
2023-07-18T23:52:40.522Z,16.34
2023-07-18T23:55:08.564Z,16.48
2023-07-18T23:57:35.121Z,16.47
